Ana Sayfa
METAR-TAF:

METAR-TAF

Havaalanları :

Sakon Nakhon, Tayland

Enlem: 17-11-42N, Boylam: 104-07-08E, yükseklik: 161 m

Güncel hava durumu gözlemi

Rapor saat 15:00 UTC de 28 dakika önce yapıldı.
Rüzgar doğudan 7 kt
Sıcaklık 23°C
Nem 65%
Basınç 1021 hPa
Görüş mesafesi: 9000 m
3500 ft yükseklikte az bulutlu

METAR: VTUI 221500Z 10007KT 9000 FEW035 23/16 Q1021 NOSIG

Saat: 22:28 (15:28 UTC)

Tahmin

Rapor saat 11:00 UTC de 4 saat ve 28 dakika önce yapıldı.
Ayın 22'si saat 12 UTC'den ayın 23'si saat 12 UTC'ye kadar geçerli Tahmin
Rüzgar doğudan 12 kt
Görüş mesafesi 10 km veya daha fazla
3000 ft yükseklikte az bulutlu

TAF: VTUI 221100Z 2212/2312 10012KT 9999 FEW030

4.000'den fazla havaalanı için hava durumu gözlemleri ve tahminleri (METAR ve TAF raporları).

Kullanılabilir istasyonlar harita üzerinde sarı ve kırmızı noktalarla gösterilir.

İstasyonun adını görmek için fareyi noktanın üzerinde gezdirin.

Sonrasında hava gözlem ve tahminlerini görmek için tıklayın.

Haritayı değiştirmek için: yaklaştırmak için siyah artı işaretli yeşil düğmeye ve uzaklaştırmak için de eksi işaretli düğmeye hızla tıklayın; bitişik haritalar için yeşil okları kullanın.


METAR-TAF: